createdAt,value
2016-01-06T00:00:11.179Z,92.29
2016-01-06T00:00:22.632Z,92.19
2016-01-06T00:00:34.088Z,92
2016-01-06T00:00:45.541Z,91.91
2016-01-06T00:00:57.010Z,92.47
2016-01-06T00:01:08.478Z,91.63
2016-01-06T00:01:19.932Z,92.29
2016-01-06T00:01:31.388Z,91.44
2016-01-06T00:01:42.841Z,91.35
2016-01-06T00:01:54.294Z,91.53
2016-01-06T00:02:05.747Z,91.44
2016-01-06T00:02:17.185Z,91.53
2016-01-06T00:02:28.640Z,91.72
2016-01-06T00:02:40.093Z,91.44
2016-01-06T00:02:51.390Z,91.25
2016-01-06T00:03:02.858Z,91.16
2016-01-06T00:03:14.327Z,91.16
2016-01-06T00:03:25.799Z,90.97
2016-01-06T00:03:37.268Z,91.63
2016-01-06T00:03:48.768Z,91.44
2016-01-06T00:04:00.221Z,90.97
2016-01-06T00:04:11.658Z,91.06
2016-01-06T00:04:23.111Z,90.97
2016-01-06T00:04:34.551Z,91.44
2016-01-06T00:04:46.004Z,91.25
2016-01-06T00:04:57.457Z,91.44
2016-01-06T00:05:08.895Z,91.16
2016-01-06T00:05:20.348Z,91.25
2016-01-06T00:05:31.820Z,90.97
2016-01-06T00:05:43.273Z,91.16
2016-01-06T00:05:54.726Z,91.16
2016-01-06T00:06:06.195Z,91.16
2016-01-06T00:06:17.679Z,91.53
2016-01-06T00:06:29.151Z,91.44
2016-01-06T00:06:40.635Z,91.35
2016-01-06T00:06:52.088Z,91.63
2016-01-06T00:07:03.541Z,92.1
2016-01-06T00:07:14.994Z,92.1
2016-01-06T00:07:26.450Z,92.19
2016-01-06T00:07:37.903Z,92
2016-01-06T00:07:49.340Z,92.19
2016-01-06T00:08:00.793Z,92
2016-01-06T00:08:12.246Z,91.91
2016-01-06T00:08:23.684Z,91.91
2016-01-06T00:08:35.171Z,91.72
2016-01-06T00:08:46.624Z,91.91
2016-01-06T00:08:58.078Z,92
2016-01-06T00:09:09.562Z,92.1
2016-01-06T00:09:21.046Z,92.29
2016-01-06T00:09:32.331Z,92.29
2016-01-06T00:09:43.784Z,92.19
2016-01-06T00:09:55.237Z,92.19
2016-01-06T00:10:06.690Z,92.19
2016-01-06T00:10:18.143Z,92.19
2016-01-06T00:10:29.598Z,92.29
2016-01-06T00:10:40.333Z,92.1
2016-01-06T00:10:51.801Z,92.19
2016-01-06T00:11:03.270Z,92.1
2016-01-06T00:11:14.739Z,91.82
2016-01-06T00:11:26.208Z,92
2016-01-06T00:11:37.679Z,91.63
2016-01-06T00:11:49.132Z,92.1
2016-01-06T00:12:00.586Z,91.72
2016-01-06T00:12:12.023Z,91.91
2016-01-06T00:12:23.476Z,92
2016-01-06T00:12:34.948Z,92.1
2016-01-06T00:12:46.385Z,92
2016-01-06T00:12:57.823Z,92.19
2016-01-06T00:13:09.276Z,92.29
2016-01-06T00:13:20.729Z,92.38
2016-01-06T00:13:32.201Z,92.57
2016-01-06T00:13:43.654Z,92.66
2016-01-06T00:13:55.123Z,92.47
2016-01-06T00:14:06.592Z,92.57
2016-01-06T00:14:18.060Z,92.19
2016-01-06T00:14:29.548Z,92.1
2016-01-06T00:14:40.298Z,92.29
2016-01-06T00:14:51.751Z,92.29
2016-01-06T00:15:03.204Z,92.38
2016-01-06T00:15:14.641Z,92.38
2016-01-06T00:15:26.095Z,92.57
2016-01-06T00:15:37.534Z,92.66
2016-01-06T00:15:48.987Z,92.66
2016-01-06T00:16:00.456Z,92.29
2016-01-06T00:16:11.893Z,92.29
2016-01-06T00:16:23.378Z,92.29
2016-01-06T00:16:34.850Z,92.47
2016-01-06T00:16:46.303Z,92.66
2016-01-06T00:16:57.771Z,92.66
2016-01-06T00:17:08.537Z,92.47
2016-01-06T00:17:20.021Z,92.47
2016-01-06T00:17:31.506Z,92.57
2016-01-06T00:17:42.977Z,92.47
2016-01-06T00:17:54.430Z,92.47
2016-01-06T00:18:05.867Z,92.47
2016-01-06T00:18:17.320Z,92.47
2016-01-06T00:18:28.773Z,92.47
2016-01-06T00:18:40.231Z,92.66
2016-01-06T00:18:51.699Z,92.47
2016-01-06T00:19:03.152Z,92.47
2016-01-06T00:19:14.606Z,92.38
2016-01-06T00:19:26.059Z,92.57
2016-01-06T00:19:37.514Z,92.47
2016-01-06T00:19:48.983Z,92.57
2016-01-06T00:19:59.764Z,92.29
2016-01-06T00:20:11.248Z,92
2016-01-06T00:20:22.717Z,92.1
2016-01-06T00:20:34.217Z,91.91
2016-01-06T00:20:45.689Z,91.91
2016-01-06T00:20:57.126Z,91.91
2016-01-06T00:21:08.595Z,91.63
2016-01-06T00:21:20.048Z,92.1
2016-01-06T00:21:31.486Z,92.1
2016-01-06T00:21:42.941Z,92.1
2016-01-06T00:21:54.378Z,91.82
2016-01-06T00:22:05.831Z,91.63
2016-01-06T00:22:17.269Z,91.44
2016-01-06T00:22:28.753Z,91.16
2016-01-06T00:22:40.225Z,91.44
2016-01-06T00:22:51.522Z,91.44
2016-01-06T00:23:03.006Z,91.25
2016-01-06T00:23:14.491Z,91.44
2016-01-06T00:23:25.959Z,91.25
2016-01-06T00:23:37.415Z,90.88
2016-01-06T00:23:48.853Z,90.59
2016-01-06T00:24:00.337Z,90.59
2016-01-06T00:24:11.790Z,90.59
2016-01-06T00:24:23.244Z,90.22
2016-01-06T00:24:34.697Z,90.59
2016-01-06T00:24:46.137Z,89.94
2016-01-06T00:24:57.590Z,90.03
2016-01-06T00:25:09.043Z,89.84
2016-01-06T00:25:20.497Z,90.12
2016-01-06T00:25:31.950Z,89.94
2016-01-06T00:25:43.437Z,89.94
2016-01-06T00:25:54.906Z,89.94
2016-01-06T00:26:06.375Z,89.94
2016-01-06T00:26:17.843Z,89.84
2016-01-06T00:26:29.140Z,89.94
2016-01-06T00:26:40.595Z,89.84
2016-01-06T00:26:52.048Z,90.03
2016-01-06T00:27:03.486Z,89.94
2016-01-06T00:27:14.939Z,89.94
2016-01-06T00:27:26.392Z,89.94
2016-01-06T00:27:37.847Z,89.75
2016-01-06T00:27:49.316Z,90.12
2016-01-06T00:28:00.769Z,90.12
2016-01-06T00:28:12.222Z,90.31
2016-01-06T00:28:23.707Z,90.12
2016-01-06T00:28:35.191Z,90.12
2016-01-06T00:28:46.663Z,89.94
2016-01-06T00:28:58.147Z,89.94
2016-01-06T00:29:09.616Z,90.31
2016-01-06T00:29:21.069Z,90.22
2016-01-06T00:29:32.522Z,90.5
2016-01-06T00:29:43.978Z,90.59
2016-01-06T00:29:55.431Z,90.69
2016-01-06T00:30:06.885Z,90.31
2016-01-06T00:30:18.353Z,90.22
2016-01-06T00:30:29.791Z,90.31
2016-01-06T00:30:41.263Z,90.22
2016-01-06T00:30:52.716Z,90.03
2016-01-06T00:31:04.169Z,90.12
2016-01-06T00:31:15.622Z,89.94
2016-01-06T00:31:27.106Z,89.84
2016-01-06T00:31:38.608Z,89.94
2016-01-06T00:31:50.077Z,89.94
2016-01-06T00:32:01.561Z,90.22
2016-01-06T00:32:13.015Z,89.75
2016-01-06T00:32:24.452Z,90.12
2016-01-06T00:32:35.905Z,90.03
2016-01-06T00:32:47.361Z,90.12
2016-01-06T00:32:58.814Z,90.03
2016-01-06T00:33:10.268Z,90.12
2016-01-06T00:33:21.002Z,90.12
2016-01-06T00:33:32.455Z,89.84
2016-01-06T00:33:43.911Z,89.84
2016-01-06T00:33:55.364Z,89.94
2016-01-06T00:34:06.677Z,89.94
2016-01-06T00:34:18.146Z,89.75
2016-01-06T00:34:29.614Z,90.03
2016-01-06T00:34:41.102Z,90.12
2016-01-06T00:34:52.570Z,90.31
2016-01-06T00:35:04.055Z,90.12
2016-01-06T00:35:15.508Z,90.03
2016-01-06T00:35:26.805Z,90.31
2016-01-06T00:35:38.258Z,90.03
2016-01-06T00:35:49.714Z,89.94
2016-01-06T00:36:01.011Z,90.03
2016-01-06T00:36:12.448Z,90.03
2016-01-06T00:36:23.902Z,90.12
2016-01-06T00:36:35.339Z,90.12
2016-01-06T00:36:46.825Z,90.12
2016-01-06T00:36:58.294Z,90.03
2016-01-06T00:37:09.747Z,90.12
2016-01-06T00:37:21.232Z,90.03
2016-01-06T00:37:32.700Z,90.22
2016-01-06T00:37:44.156Z,90.03
2016-01-06T00:37:55.609Z,89.94
2016-01-06T00:38:07.062Z,90.03
2016-01-06T00:38:18.515Z,90.03
2016-01-06T00:38:29.952Z,90.22
2016-01-06T00:38:41.406Z,90.03
2016-01-06T00:38:52.862Z,90.22
2016-01-06T00:39:04.315Z,90.41
2016-01-06T00:39:15.784Z,90.41
2016-01-06T00:39:27.237Z,90.59
2016-01-06T00:39:38.752Z,90.59
2016-01-06T00:39:50.240Z,90.41
2016-01-06T00:40:01.708Z,90.59
2016-01-06T00:40:13.193Z,90.59
2016-01-06T00:40:24.677Z,90.5
2016-01-06T00:40:36.162Z,90.31
2016-01-06T00:40:47.618Z,89.94
2016-01-06T00:40:59.071Z,90.03
2016-01-06T00:41:10.508Z,89.84
2016-01-06T00:41:21.946Z,89.94
2016-01-06T00:41:33.399Z,90.03
2016-01-06T00:41:44.855Z,89.94
2016-01-06T00:41:56.308Z,90.12
2016-01-06T00:42:07.761Z,90.03
2016-01-06T00:42:19.214Z,89.65
2016-01-06T00:42:30.668Z,89.84
2016-01-06T00:42:42.121Z,90.12
2016-01-06T00:42:53.607Z,89.84
2016-01-06T00:43:05.091Z,90.12
2016-01-06T00:43:16.576Z,90.22
2016-01-06T00:43:28.029Z,90.12
2016-01-06T00:43:39.466Z,90.41
2016-01-06T00:43:50.923Z,90.31
2016-01-06T00:44:02.360Z,90.41
2016-01-06T00:44:13.798Z,90.12
2016-01-06T00:44:25.235Z,90.03
2016-01-06T00:44:36.688Z,90.69
2016-01-06T00:44:48.144Z,90.78
2016-01-06T00:44:59.613Z,90.88
2016-01-06T00:45:11.066Z,90.59
2016-01-06T00:45:22.535Z,90.97
2016-01-06T00:45:34.004Z,90.78
2016-01-06T00:45:45.490Z,90.78
2016-01-06T00:45:56.943Z,90.88
2016-01-06T00:46:08.396Z,90.88
2016-01-06T00:46:19.849Z,90.88
2016-01-06T00:46:31.303Z,91.25
2016-01-06T00:46:42.756Z,91.44
2016-01-06T00:46:54.212Z,91.06
2016-01-06T00:47:05.649Z,91.25
2016-01-06T00:47:17.118Z,91.25
2016-01-06T00:47:28.571Z,91.53
2016-01-06T00:47:40.040Z,91.25
2016-01-06T00:47:51.512Z,91.25
2016-01-06T00:48:03.012Z,91.06
2016-01-06T00:48:14.465Z,91.06
2016-01-06T00:48:25.918Z,91.16
2016-01-06T00:48:37.355Z,91.16
2016-01-06T00:48:48.811Z,91.16
2016-01-06T00:49:00.264Z,91.25
2016-01-06T00:49:11.701Z,91.53
2016-01-06T00:49:23.154Z,91.44
2016-01-06T00:49:34.623Z,91.53
2016-01-06T00:49:46.095Z,91.44
2016-01-06T00:49:57.564Z,91.25
2016-01-06T00:50:09.017Z,91.53
2016-01-06T00:50:20.501Z,91.44
2016-01-06T00:50:31.970Z,91.63
2016-01-06T00:50:43.423Z,91.25
2016-01-06T00:50:54.879Z,91.16
2016-01-06T00:51:06.348Z,91.35
2016-01-06T00:51:17.785Z,91.25
2016-01-06T00:51:29.238Z,91.44
2016-01-06T00:51:40.692Z,91.44
2016-01-06T00:51:52.148Z,91.16
2016-01-06T00:52:03.601Z,91.53
2016-01-06T00:52:15.054Z,91.16
2016-01-06T00:52:26.507Z,91.53
2016-01-06T00:52:37.976Z,91.53
2016-01-06T00:52:49.447Z,91.25
2016-01-06T00:53:00.915Z,91.25
2016-01-06T00:53:12.400Z,91.44
2016-01-06T00:53:23.853Z,91.63
2016-01-06T00:53:35.306Z,91.25
2016-01-06T00:53:46.762Z,92.1
2016-01-06T00:53:58.200Z,92.19
2016-01-06T00:54:09.653Z,92
2016-01-06T00:54:21.090Z,92.29
2016-01-06T00:54:32.543Z,92.19
2016-01-06T00:54:43.996Z,92.19
2016-01-06T00:54:55.467Z,92
2016-01-06T00:55:06.920Z,91.91
2016-01-06T00:55:18.389Z,92
2016-01-06T00:55:29.842Z,92.1
2016-01-06T00:55:41.311Z,92.1
2016-01-06T00:55:52.799Z,92.38
2016-01-06T00:56:04.268Z,92.57
2016-01-06T00:56:15.737Z,92.57
2016-01-06T00:56:27.034Z,92.57
2016-01-06T00:56:38.502Z,92.1
2016-01-06T00:56:49.942Z,92.19
2016-01-06T00:57:01.395Z,92.47
2016-01-06T00:57:12.848Z,92.29
2016-01-06T00:57:24.301Z,92.57
2016-01-06T00:57:35.754Z,92.38
2016-01-06T00:57:47.211Z,92.38
2016-01-06T00:57:58.679Z,92
2016-01-06T00:58:10.132Z,92.1
2016-01-06T00:58:21.586Z,92.1
2016-01-06T00:58:33.054Z,92.76
2016-01-06T00:58:44.523Z,92.38
2016-01-06T00:58:56.010Z,92.29
2016-01-06T00:59:07.479Z,92.76
2016-01-06T00:59:18.932Z,92.76
2016-01-06T00:59:30.386Z,92.38
2016-01-06T00:59:41.824Z,92.66
2016-01-06T00:59:53.279Z,92.47
2016-01-06T01:00:04.748Z,92.66
2016-01-06T01:00:16.201Z,92.66
2016-01-06T01:00:27.513Z,92.85
2016-01-06T01:00:38.951Z,92.76
2016-01-06T01:00:50.406Z,92.66
2016-01-06T01:01:01.859Z,92.76
2016-01-06T01:01:12.609Z,92.47
2016-01-06T01:01:24.062Z,92.47
2016-01-06T01:01:35.547Z,92.57
2016-01-06T01:01:47.015Z,92.47
2016-01-06T01:01:58.503Z,92.47
2016-01-06T01:02:09.971Z,92.57
2016-01-06T01:02:21.425Z,92.47
2016-01-06T01:02:32.878Z,92.47
2016-01-06T01:02:44.331Z,92.38
2016-01-06T01:02:55.787Z,92.47
2016-01-06T01:03:07.240Z,92.66
2016-01-06T01:03:18.693Z,92.76
2016-01-06T01:03:30.162Z,92.76
2016-01-06T01:03:41.599Z,92.66
2016-01-06T01:03:53.056Z,92.85
2016-01-06T01:04:04.509Z,92.85
2016-01-06T01:04:15.821Z,92.66
2016-01-06T01:04:27.306Z,92.95
2016-01-06T01:04:38.774Z,93.04
2016-01-06T01:04:50.230Z,92.95
2016-01-06T01:05:01.684Z,92.85
2016-01-06T01:05:13.137Z,93.04
2016-01-06T01:05:24.590Z,93.04
2016-01-06T01:05:36.027Z,92.85
2016-01-06T01:05:47.480Z,93.23
2016-01-06T01:05:58.936Z,92.85
2016-01-06T01:06:10.389Z,93.42
2016-01-06T01:06:21.889Z,93.32
2016-01-06T01:06:33.186Z,93.23
2016-01-06T01:06:44.654Z,93.61
2016-01-06T01:06:56.142Z,93.51
2016-01-06T01:07:07.626Z,93.32
2016-01-06T01:07:18.939Z,93.61
2016-01-06T01:07:30.376Z,93.42
2016-01-06T01:07:41.829Z,93.61
2016-01-06T01:07:53.285Z,93.32
2016-01-06T01:08:04.738Z,93.79
2016-01-06T01:08:16.192Z,93.79
2016-01-06T01:08:27.660Z,93.61
2016-01-06T01:08:39.098Z,93.23
2016-01-06T01:08:50.554Z,93.61
2016-01-06T01:09:02.007Z,93.42
2016-01-06T01:09:13.320Z,93.61
2016-01-06T01:09:24.773Z,93.61
2016-01-06T01:09:36.241Z,93.32
2016-01-06T01:09:47.726Z,93.79
2016-01-06T01:09:59.197Z,93.89
2016-01-06T01:10:09.962Z,93.51
2016-01-06T01:10:21.415Z,93.51
2016-01-06T01:10:32.868Z,93.89
2016-01-06T01:10:44.306Z,93.61
2016-01-06T01:10:55.762Z,93.51
2016-01-06T01:11:07.215Z,93.79
2016-01-06T01:11:18.653Z,93.79
2016-01-06T01:11:30.121Z,93.89
2016-01-06T01:11:41.575Z,94.08
2016-01-06T01:11:53.031Z,94.27
2016-01-06T01:12:04.499Z,94.27
2016-01-06T01:12:15.968Z,94.08
2016-01-06T01:12:27.421Z,94.08
2016-01-06T01:12:38.890Z,94.17
2016-01-06T01:12:50.390Z,93.7
2016-01-06T01:13:01.861Z,93.89
2016-01-06T01:13:13.298Z,93.89
2016-01-06T01:13:24.751Z,93.98
2016-01-06T01:13:36.189Z,93.61
2016-01-06T01:13:47.642Z,93.89
2016-01-06T01:13:59.098Z,93.79
2016-01-06T01:14:10.551Z,93.89
2016-01-06T01:14:22.004Z,93.89
2016-01-06T01:14:33.458Z,93.7
2016-01-06T01:14:44.911Z,93.79
2016-01-06T01:14:56.523Z,93.89
2016-01-06T01:15:07.992Z,93.98
2016-01-06T01:15:19.461Z,93.89
2016-01-06T01:15:30.226Z,93.79
2016-01-06T01:15:41.711Z,93.98
2016-01-06T01:15:53.179Z,94.27
2016-01-06T01:16:04.667Z,94.08
2016-01-06T01:16:16.135Z,94.08
2016-01-06T01:16:27.573Z,93.89
2016-01-06T01:16:39.026Z,93.89
2016-01-06T01:16:50.464Z,94.27
2016-01-06T01:17:01.903Z,94.17
2016-01-06T01:17:13.356Z,94.17
2016-01-06T01:17:24.825Z,94.45
2016-01-06T01:17:36.278Z,94.17
2016-01-06T01:17:47.716Z,94.45
2016-01-06T01:17:59.187Z,94.17
2016-01-06T01:18:10.656Z,94.08
2016-01-06T01:18:22.109Z,93.98
2016-01-06T01:18:33.594Z,94.17
2016-01-06T01:18:45.047Z,94.17
2016-01-06T01:18:56.503Z,94.36
2016-01-06T01:19:07.940Z,94.17
2016-01-06T01:19:19.393Z,94.08
2016-01-06T01:19:30.690Z,94.08
2016-01-06T01:19:42.143Z,94.17
2016-01-06T01:19:53.597Z,94.17
2016-01-06T01:20:05.053Z,94.08
2016-01-06T01:20:16.506Z,94.08
2016-01-06T01:20:27.959Z,94.17
2016-01-06T01:20:39.412Z,94.36
2016-01-06T01:20:50.881Z,94.17
2016-01-06T01:21:02.352Z,93.98
2016-01-06T01:21:13.680Z,94.27
2016-01-06T01:21:25.164Z,94.17
2016-01-06T01:22:10.258Z,93.98
2016-01-06T01:22:22.977Z,93.89
2016-01-06T01:22:34.289Z,94.17
2016-01-06T01:22:45.727Z,93.89
2016-01-06T01:22:57.180Z,93.98
2016-01-06T01:23:08.652Z,94.27
2016-01-06T01:23:20.105Z,94.08
2016-01-06T01:23:31.558Z,93.98
2016-01-06T01:23:43.042Z,94.27
2016-01-06T01:23:54.511Z,94.27
2016-01-06T01:24:05.997Z,94.36
2016-01-06T01:24:17.450Z,94.17
2016-01-06T01:24:28.200Z,94.17
2016-01-06T01:24:39.654Z,94.55
2016-01-06T01:24:51.107Z,93.98
2016-01-06T01:25:02.560Z,94.55
2016-01-06T01:25:14.000Z,94.74
2016-01-06T01:25:25.469Z,94.64
2016-01-06T01:25:36.922Z,94.74
2016-01-06T01:25:48.360Z,94.27
2016-01-06T01:25:59.828Z,94.36
2016-01-06T01:26:11.285Z,94.45
2016-01-06T01:26:22.753Z,94.45
2016-01-06T01:26:34.238Z,94.45
2016-01-06T01:26:45.706Z,94.08
2016-01-06T01:26:57.175Z,94.08
2016-01-06T01:27:08.630Z,94.17
2016-01-06T01:27:20.083Z,94.17
2016-01-06T01:27:31.537Z,94.36
2016-01-06T01:27:42.974Z,94.08
2016-01-06T01:27:54.427Z,94.45
2016-01-06T01:28:05.868Z,93.98
2016-01-06T01:28:17.336Z,94.27
2016-01-06T01:28:28.774Z,94.36
2016-01-06T01:28:40.227Z,93.98
2016-01-06T01:28:51.696Z,94.45
2016-01-06T01:29:03.149Z,94.17
2016-01-06T01:29:14.605Z,94.17
2016-01-06T01:29:26.074Z,94.45
2016-01-06T01:29:37.527Z,94.45
2016-01-06T01:29:48.980Z,94.83
2016-01-06T01:30:00.433Z,94.36
2016-01-06T01:30:11.905Z,94.17
2016-01-06T01:30:23.342Z,95.02
2016-01-06T01:30:34.796Z,93.98
2016-01-06T01:30:46.249Z,94.08
2016-01-06T01:30:57.717Z,94.45
2016-01-06T01:31:09.173Z,94.64
2016-01-06T01:31:20.641Z,94.08
2016-01-06T01:31:32.126Z,94.17
2016-01-06T01:31:43.594Z,94.64
2016-01-06T01:31:55.079Z,94.17
2016-01-06T01:32:06.566Z,94.64
2016-01-06T01:32:18.019Z,94.36
2016-01-06T01:32:29.488Z,94.27
2016-01-06T01:32:40.926Z,94.36
2016-01-06T01:32:52.379Z,94.36
2016-01-06T01:33:03.832Z,94.27
2016-01-06T01:33:15.115Z,94.36
2016-01-06T01:33:26.568Z,94.45
2016-01-06T01:33:38.021Z,94.36
2016-01-06T01:33:49.474Z,94.08
2016-01-06T01:34:00.943Z,95.02
2016-01-06T01:34:12.416Z,94.45
2016-01-06T01:34:23.900Z,94.27
2016-01-06T01:34:35.369Z,94.08
2016-01-06T01:34:46.853Z,94.08
2016-01-06T01:34:58.338Z,95.21
2016-01-06T01:35:09.793Z,94.27
2016-01-06T01:35:21.246Z,94.27
2016-01-06T01:35:32.699Z,94.27
2016-01-06T01:35:43.980Z,94.27
2016-01-06T01:35:55.434Z,94.36
2016-01-06T01:36:06.871Z,94.27
2016-01-06T01:36:17.624Z,94.17
2016-01-06T01:36:29.062Z,94.36
2016-01-06T01:36:40.530Z,94.17
2016-01-06T01:36:51.999Z,94.83
2016-01-06T01:37:03.452Z,94.27
2016-01-06T01:37:14.924Z,94.45
2016-01-06T01:37:26.393Z,94.45
2016-01-06T01:37:37.861Z,94.45
2016-01-06T01:37:49.315Z,94.45
2016-01-06T01:38:00.752Z,94.45
2016-01-06T01:38:12.208Z,94.17
2016-01-06T01:38:23.646Z,93.89
2016-01-06T01:38:35.099Z,94.08
2016-01-06T01:38:46.552Z,94.45
2016-01-06T01:38:57.989Z,94.27
2016-01-06T01:39:09.445Z,94.17
2016-01-06T01:39:20.898Z,94.45
2016-01-06T01:39:32.366Z,94.45
2016-01-06T01:39:43.835Z,94.17
2016-01-06T01:39:55.304Z,94.45
2016-01-06T01:40:06.773Z,94.45
2016-01-06T01:40:18.244Z,94.36
2016-01-06T01:40:29.744Z,94.36
2016-01-06T01:40:41.198Z,94.36
2016-01-06T01:40:52.494Z,94.36
2016-01-06T01:41:03.948Z,94.55
2016-01-06T01:41:15.404Z,94.45
2016-01-06T01:41:26.857Z,94.17
2016-01-06T01:41:38.310Z,94.27
2016-01-06T01:41:49.763Z,94.36
2016-01-06T01:42:01.201Z,94.08
2016-01-06T01:42:12.671Z,94.27
2016-01-06T01:42:24.124Z,94.08
2016-01-06T01:42:35.578Z,94.45
2016-01-06T01:42:47.046Z,94.55
2016-01-06T01:42:58.515Z,94.45
2016-01-06T01:43:09.987Z,95.02
2016-01-06T01:43:21.456Z,94.36
2016-01-06T01:43:32.909Z,94.36
2016-01-06T01:43:44.362Z,94.36
2016-01-06T01:43:55.815Z,94.36
2016-01-06T01:44:07.268Z,94.36
2016-01-06T01:44:18.708Z,94.74
2016-01-06T01:44:30.176Z,94.83
2016-01-06T01:44:41.629Z,95.02
2016-01-06T01:44:53.083Z,95.02
2016-01-06T01:45:04.536Z,94.64
2016-01-06T01:45:15.993Z,94.93
2016-01-06T01:45:27.462Z,95.02
2016-01-06T01:45:38.930Z,94.93
2016-01-06T01:45:50.415Z,94.93
2016-01-06T01:46:01.883Z,94.83
2016-01-06T01:46:13.338Z,94.93
2016-01-06T01:46:24.791Z,94.64
2016-01-06T01:46:36.244Z,94.74
2016-01-06T01:46:47.697Z,94.74
2016-01-06T01:46:59.150Z,94.74
2016-01-06T01:47:10.622Z,94.74
2016-01-06T01:47:22.075Z,94.55
2016-01-06T01:47:33.528Z,94.93
2016-01-06T01:47:44.981Z,94.64
2016-01-06T01:47:56.434Z,95.11
2016-01-06T01:48:07.887Z,95.02
2016-01-06T01:48:19.359Z,95.11
2016-01-06T01:48:30.828Z,95.02
2016-01-06T01:48:42.297Z,95.4
2016-01-06T01:48:53.765Z,95.49
2016-01-06T01:49:05.250Z,95.4
2016-01-06T01:49:16.690Z,95.21
2016-01-06T01:49:28.143Z,95.3
2016-01-06T01:49:39.597Z,95.02
2016-01-06T01:49:51.050Z,95.21
2016-01-06T01:50:02.503Z,95.59
2016-01-06T01:50:13.975Z,95.3
2016-01-06T01:50:25.412Z,95.3
2016-01-06T01:50:36.865Z,95.3
2016-01-06T01:50:48.334Z,95.4
2016-01-06T01:50:59.787Z,95.4
2016-01-06T01:51:11.273Z,95.4
2016-01-06T01:51:22.742Z,95.4
2016-01-06T01:51:34.211Z,95.59
2016-01-06T01:51:45.695Z,95.59
2016-01-06T01:51:57.164Z,95.77
2016-01-06T01:52:07.914Z,95.4
2016-01-06T01:52:19.370Z,95.77
2016-01-06T01:52:30.808Z,95.4
2016-01-06T01:52:42.261Z,95.4
2016-01-06T01:52:53.714Z,95.4
2016-01-06T01:53:05.151Z,95.59
2016-01-06T01:53:16.608Z,95.59
2016-01-06T01:53:27.358Z,95.59
2016-01-06T01:53:38.811Z,95.68
2016-01-06T01:53:50.279Z,95.59
2016-01-06T01:54:01.733Z,95.49
2016-01-06T01:54:13.217Z,95.59
2016-01-06T01:54:23.985Z,95.49
2016-01-06T01:54:35.453Z,95.4
2016-01-06T01:54:46.906Z,95.4
2016-01-06T01:54:58.344Z,95.4
2016-01-06T01:55:09.797Z,95.3
2016-01-06T01:55:21.253Z,95.68
2016-01-06T01:55:32.706Z,95.4
2016-01-06T01:55:44.159Z,95.49
2016-01-06T01:55:55.456Z,95.59
2016-01-06T01:56:06.925Z,95.68
2016-01-06T01:56:18.381Z,95.68
2016-01-06T01:56:29.881Z,95.4
2016-01-06T01:56:41.350Z,95.4
2016-01-06T01:56:52.834Z,95.4
2016-01-06T01:57:04.319Z,95.3
2016-01-06T01:57:15.772Z,95.4
2016-01-06T01:57:27.228Z,95.4
2016-01-06T01:57:38.681Z,95.49
2016-01-06T01:57:50.134Z,95.3
2016-01-06T01:58:01.572Z,95.49
2016-01-06T01:58:13.025Z,95.49
2016-01-06T01:58:24.480Z,95.49
2016-01-06T01:58:35.933Z,95.3
2016-01-06T01:58:47.386Z,95.3
2016-01-06T01:58:58.839Z,95.49
2016-01-06T01:59:10.308Z,95.49
2016-01-06T01:59:21.780Z,95.49
2016-01-06T01:59:33.264Z,95.49
2016-01-06T01:59:44.733Z,95.59
2016-01-06T01:59:56.217Z,95.59
2016-01-06T02:00:07.702Z,95.59
2016-01-06T02:00:19.158Z,95.49
2016-01-06T02:00:30.611Z,95.59
2016-01-06T02:00:42.064Z,95.4
2016-01-06T02:00:53.502Z,95.59
2016-01-06T02:01:04.955Z,95.4
2016-01-06T02:01:16.408Z,95.59
2016-01-06T02:01:27.847Z,95.11
2016-01-06T02:01:39.300Z,95.4
2016-01-06T02:01:50.769Z,95.4
2016-01-06T02:02:01.925Z,95.4
2016-01-06T02:02:13.254Z,95.49
2016-01-06T02:02:24.429Z,95.68
2016-01-06T02:02:35.914Z,95.68
2016-01-06T02:02:47.461Z,95.77
2016-01-06T02:02:58.929Z,95.77
2016-01-06T02:03:10.414Z,95.77
2016-01-06T02:03:21.853Z,95.77
2016-01-06T02:03:33.150Z,95.77
2016-01-06T02:03:44.603Z,95.77
2016-01-06T02:03:55.338Z,95.77
2016-01-06T02:04:06.791Z,95.68
2016-01-06T02:04:18.228Z,96.06
2016-01-06T02:04:29.684Z,95.77
2016-01-06T02:04:41.138Z,96.06
2016-01-06T02:04:52.591Z,95.77
2016-01-06T02:05:04.044Z,95.4
2016-01-06T02:05:15.513Z,95.77
2016-01-06T02:05:26.984Z,95.87
2016-01-06T02:05:38.453Z,95.77
2016-01-06T02:05:49.922Z,95.77
2016-01-06T02:06:01.391Z,96.06
2016-01-06T02:06:12.859Z,95.96
2016-01-06T02:06:24.361Z,95.96
2016-01-06T02:06:35.814Z,95.96
2016-01-06T02:06:47.268Z,96.06
2016-01-06T02:06:58.705Z,96.06
2016-01-06T02:07:10.158Z,95.87
2016-01-06T02:07:21.613Z,95.96
2016-01-06T02:07:33.066Z,95.68
2016-01-06T02:07:44.520Z,95.68
2016-01-06T02:07:55.973Z,95.68
2016-01-06T02:08:07.441Z,95.68
2016-01-06T02:08:18.895Z,95.77
2016-01-06T02:08:30.366Z,95.68
2016-01-06T02:08:41.835Z,95.77
2016-01-06T02:08:53.273Z,95.59
2016-01-06T02:09:04.726Z,95.68
2016-01-06T02:09:16.163Z,95.96
2016-01-06T02:09:27.619Z,95.77
2016-01-06T02:09:39.072Z,95.87
2016-01-06T02:09:50.526Z,96.34
2016-01-06T02:10:01.822Z,96.25
2016-01-06T02:10:13.276Z,95.96
2016-01-06T02:10:24.763Z,96.25
2016-01-06T02:10:36.247Z,96.44
2016-01-06T02:10:47.732Z,96.34
2016-01-06T02:10:59.185Z,96.25
2016-01-06T02:11:10.654Z,96.15
2016-01-06T02:11:22.110Z,96.25
2016-01-06T02:11:33.563Z,96.15
2016-01-06T02:11:45.000Z,96.44
2016-01-06T02:11:56.453Z,96.25
2016-01-06T02:12:07.922Z,96.91
2016-01-06T02:12:19.375Z,96.91
2016-01-06T02:12:30.846Z,96.53
2016-01-06T02:12:42.315Z,96.72
2016-01-06T02:12:53.768Z,96.81
2016-01-06T02:13:05.237Z,96.72
2016-01-06T02:13:16.705Z,96.81
2016-01-06T02:13:28.177Z,96.72
2016-01-06T02:13:39.646Z,96.72
2016-01-06T02:13:50.396Z,96.91
2016-01-06T02:14:01.849Z,97
2016-01-06T02:14:13.287Z,97
2016-01-06T02:14:24.727Z,96.91
2016-01-06T02:14:36.180Z,97.09
2016-01-06T02:14:47.649Z,97.09
2016-01-06T02:14:59.102Z,96.81
2016-01-06T02:15:10.571Z,97.09
2016-01-06T02:15:22.024Z,97.09
2016-01-06T02:15:33.511Z,97
2016-01-06T02:15:44.980Z,97.09
2016-01-06T02:15:56.293Z,96.81
2016-01-06T02:16:07.777Z,97
2016-01-06T02:16:19.261Z,97.09
2016-01-06T02:16:30.732Z,97
2016-01-06T02:16:42.170Z,97.09
2016-01-06T02:16:53.623Z,96.53
2016-01-06T02:17:05.076Z,97.09
2016-01-06T02:17:16.545Z,96.53
2016-01-06T02:17:28.001Z,96.81
2016-01-06T02:17:39.469Z,96.81
2016-01-06T02:17:50.923Z,97.19
2016-01-06T02:18:02.360Z,96.81
2016-01-06T02:18:13.829Z,97.19
2016-01-06T02:18:25.300Z,96.72
2016-01-06T02:18:36.784Z,96.72
2016-01-06T02:18:48.253Z,96.72
2016-01-06T02:18:59.721Z,97.09
2016-01-06T02:19:11.175Z,97
2016-01-06T02:19:22.612Z,97
2016-01-06T02:19:34.068Z,97
2016-01-06T02:19:45.506Z,97.09
2016-01-06T02:19:56.990Z,97.28
2016-01-06T02:20:08.428Z,97
2016-01-06T02:20:19.881Z,97
2016-01-06T02:20:31.368Z,96.81
2016-01-06T02:20:42.806Z,97.09
2016-01-06T02:20:54.306Z,97.09
2016-01-06T02:21:05.774Z,97.19
2016-01-06T02:21:17.227Z,97
2016-01-06T02:21:28.683Z,97
2016-01-06T02:21:40.167Z,96.81
2016-01-06T02:21:51.604Z,97
2016-01-06T02:22:03.120Z,97.09
2016-01-06T02:22:14.589Z,97.09
2016-01-06T02:22:26.076Z,97
2016-01-06T02:22:37.529Z,97
2016-01-06T02:22:48.967Z,97.19
2016-01-06T02:23:00.420Z,97.09
2016-01-06T02:23:11.873Z,96.91
2016-01-06T02:23:23.326Z,96.91
2016-01-06T02:23:34.782Z,96.44
2016-01-06T02:23:46.251Z,96.81
2016-01-06T02:23:57.720Z,96.53
2016-01-06T02:24:09.189Z,96.81
2016-01-06T02:24:20.673Z,96.62
2016-01-06T02:24:32.160Z,96.81
2016-01-06T02:24:43.660Z,96.91
2016-01-06T02:24:55.113Z,96.25
2016-01-06T02:25:06.567Z,96.34
2016-01-06T02:25:18.020Z,96.44
2016-01-06T02:25:29.506Z,96.25
2016-01-06T02:25:41.006Z,96.06
2016-01-06T02:25:52.459Z,96.25
2016-01-06T02:26:03.912Z,95.96
2016-01-06T02:26:15.365Z,96.06
2016-01-06T02:26:26.806Z,96.06
2016-01-06T02:26:38.118Z,96.34
2016-01-06T02:26:49.572Z,96.15
2016-01-06T02:27:01.040Z,96.34
2016-01-06T02:27:12.509Z,96.25
2016-01-06T02:27:23.993Z,96.34
2016-01-06T02:27:35.465Z,96.53
2016-01-06T02:27:46.950Z,96.44
2016-01-06T02:27:58.403Z,96.25
2016-01-06T02:28:09.137Z,96.25
2016-01-06T02:28:20.590Z,95.87
2016-01-06T02:28:32.046Z,95.96
2016-01-06T02:28:43.499Z,96.15
2016-01-06T02:28:54.968Z,96.44